Observation data for Denver City on 08/13/2020      Previous  Date       Current Mesonet Observations  Soil Data  Daily Summary Page  Observations in Plain Language
KDVS 130500Z 18010KT 28/12 A3003 RMK A01 T02840115  RH  036%=      5-min Rain = 0
KDVS 130505Z 18010KT 29/11 A3003 RMK A01 T02850113  RH  036%=      5-min Rain = 0
KDVS 130510Z 18010KT 29/11 A3003 RMK A01 T02850111  RH  035%=      5-min Rain = 0
KDVS 130515Z 18010KT 28/11 A3003 RMK A01 T02840112  RH  036%=      5-min Rain = 0
KDVS 130520Z 19009KT 28/11 A3003 RMK A01 T02810112  RH  036%=      5-min Rain = 0
KDVS 130525Z 19011KT 28/11 A3003 RMK A01 T02830111  RH  036%=      5-min Rain = 0
KDVS 130530Z 18011KT 29/11 A3003 RMK A01 T02860109  RH  034%=      5-min Rain = 0
KDVS 130535Z 18012KT 29/11 A3003 RMK A01 T02880109  RH  034%=      5-min Rain = 0
KDVS 130540Z 19011KT 29/11 A3003 RMK A01 T02860109  RH  034%=      5-min Rain = 0
KDVS 130545Z 18010KT 28/11 A3003 RMK A01 T02840110  RH  035%=      5-min Rain = 0
KDVS 130550Z 19010KT 28/11 A3003 RMK A01 T02820111  RH  036%=      5-min Rain = 0
KDVS 130555Z 19009KT 28/11 A3004 RMK A01 T02790112  RH  037%=      5-min Rain = 0
KDVS 130600Z 19008KT 28/11 A3004 RMK A01 T02750112  RH  037%=      5-min Rain = 0
KDVS 130605Z 19008KT 27/11 A3004 RMK A01 T02730112  RH  038%=      5-min Rain = 0
KDVS 130610Z 19008KT 27/11 A3004 RMK A01 T02720112  RH  038%=      5-min Rain = 0
KDVS 130615Z 19010KT 27/11 A3004 RMK A01 T02720113  RH  038%=      5-min Rain = 0
KDVS 130620Z 19011KT 27/11 A3004 RMK A01 T02740114  RH  038%=      5-min Rain = 0
KDVS 130625Z 19011KT 27/12 A3004 RMK A01 T02730115  RH  039%=      5-min Rain = 0
KDVS 130630Z 19011KT 27/12 A3004 RMK A01 T02720115  RH  039%=      5-min Rain = 0
KDVS 130635Z 19011KT 27/12 A3004 RMK A01 T02730115  RH  039%=      5-min Rain = 0
KDVS 130640Z 19010KT 27/12 A3004 RMK A01 T02730116  RH  039%=      5-min Rain = 0
KDVS 130645Z 19010KT 27/12 A3004 RMK A01 T02700116  RH  040%=      5-min Rain = 0
KDVS 130650Z 18009KT 27/12 A3004 RMK A01 T02690117  RH  040%=      5-min Rain = 0
KDVS 130655Z 18009KT 27/12 A3004 RMK A01 T02660118  RH  041%=      5-min Rain = 0
KDVS 130700Z 19010KT 27/12 A3004 RMK A01 T02650119  RH  042%=      5-min Rain = 0
KDVS 130705Z 19011KT 27/12 A3004 RMK A01 T02650120  RH  042%=      5-min Rain = 0
KDVS 130710Z 20010KT 27/12 A3004 RMK A01 T02650120  RH  042%=      5-min Rain = 0
KDVS 130715Z 19010KT 27/12 A3004 RMK A01 T02650120  RH  042%=      5-min Rain = 0
KDVS 130720Z 19011KT 27/12 A3004 RMK A01 T02650120  RH  042%=      5-min Rain = 0
KDVS 130725Z 19011KT 27/12 A3004 RMK A01 T02660120  RH  042%=      5-min Rain = 0
KDVS 130730Z 20011KT 27/12 A3004 RMK A01 T02660121  RH  042%=      5-min Rain = 0
KDVS 130735Z 20010KT 27/12 A3004 RMK A01 T02670121  RH  042%=      5-min Rain = 0
KDVS 130740Z 20011KT 27/12 A3004 RMK A01 T02670121  RH  042%=      5-min Rain = 0
KDVS 130745Z 20010KT 27/12 A3004 RMK A01 T02660121  RH  042%=      5-min Rain = 0
KDVS 130750Z 20010KT 27/12 A3004 RMK A01 T02660121  RH  042%=      5-min Rain = 0
KDVS 130755Z 20011KT 27/12 A3004 RMK A01 T02660121  RH  042%=      5-min Rain = 0
KDVS 130800Z 20011KT 27/12 A3004 RMK A01 T02660120  RH  042%=      5-min Rain = 0
KDVS 130805Z 20011KT 27/12 A3004 RMK A01 T02650121  RH  042%=      5-min Rain = 0
KDVS 130810Z 20010KT 26/12 A3004 RMK A01 T02640121  RH  043%=      5-min Rain = 0
KDVS 130815Z 20009KT 26/12 A3005 RMK A01 T02630122  RH  043%=      5-min Rain = 0
KDVS 130820Z 20009KT 26/12 A3005 RMK A01 T02620123  RH  044%=      5-min Rain = 0
KDVS 130825Z 20009KT 26/12 A3005 RMK A01 T02610123  RH  044%=      5-min Rain = 0
KDVS 130830Z 21009KT 26/12 A3005 RMK A01 T02610124  RH  044%=      5-min Rain = 0
KDVS 130835Z 21009KT 26/12 A3005 RMK A01 T02590124  RH  045%=      5-min Rain = 0
KDVS 130840Z 21009KT 26/13 A3005 RMK A01 T02590125  RH  045%=      5-min Rain = 0
KDVS 130845Z 22008KT 26/13 A3005 RMK A01 T02570126  RH  046%=      5-min Rain = 0
KDVS 130850Z 22007KT 25/13 A3005 RMK A01 T02530126  RH  047%=      5-min Rain = 0
KDVS 130855Z 22007KT 25/13 A3005 RMK A01 T02500127  RH  048%=      5-min Rain = 0
KDVS 130900Z 22008KT 25/13 A3005 RMK A01 T02480128  RH  049%=      5-min Rain = 0
KDVS 130905Z 22008KT 25/13 A3005 RMK A01 T02470127  RH  049%=      5-min Rain = 0
KDVS 130910Z 22008KT 25/13 A3005 RMK A01 T02460127  RH  049%=      5-min Rain = 0
KDVS 130915Z 22008KT 25/13 A3005 RMK A01 T02460128  RH  050%=      5-min Rain = 0
KDVS 130920Z 22008KT 25/13 A3005 RMK A01 T02450129  RH  050%=      5-min Rain = 0
KDVS 130925Z 22008KT 25/13 A3005 RMK A01 T02450130  RH  051%=      5-min Rain = 0
KDVS 130930Z 21008KT 24/13 A3004 RMK A01 T02440131  RH  051%=      5-min Rain = 0
KDVS 130935Z 22008KT 24/13 A3004 RMK A01 T02440132  RH  052%=      5-min Rain = 0
KDVS 130940Z 21009KT 24/13 A3004 RMK A01 T02440133  RH  052%=      5-min Rain = 0
KDVS 130945Z 21008KT 24/13 A3004 RMK A01 T02430134  RH  053%=      5-min Rain = 0
KDVS 130950Z 21008KT 24/14 A3004 RMK A01 T02430135  RH  053%=      5-min Rain = 0
KDVS 130955Z 21007KT 24/14 A3004 RMK A01 T02410136  RH  054%=      5-min Rain = 0
KDVS 131000Z 21007KT 24/14 A3004 RMK A01 T02400136  RH  054%=      5-min Rain = 0
KDVS 131005Z 20007KT 24/14 A3004 RMK A01 T02380136  RH  055%=      5-min Rain = 0
KDVS 131010Z 20007KT 24/14 A3004 RMK A01 T02370136  RH  055%=      5-min Rain = 0
KDVS 131015Z 20007KT 24/14 A3004 RMK A01 T02380135  RH  055%=      5-min Rain = 0
KDVS 131020Z 19006KT 24/14 A3004 RMK A01 T02380135  RH  055%=      5-min Rain = 0
KDVS 131025Z 19006KT 24/14 A3004 RMK A01 T02350135  RH  055%=      5-min Rain = 0
KDVS 131030Z 20006KT 24/14 A3004 RMK A01 T02350135  RH  056%=      5-min Rain = 0
KDVS 131035Z 20006KT 24/14 A3004 RMK A01 T02350135  RH  056%=      5-min Rain = 0
KDVS 131040Z 19007KT 24/14 A3004 RMK A01 T02350135  RH  056%=      5-min Rain = 0
KDVS 131045Z 18007KT 24/14 A3004 RMK A01 T02350135  RH  056%=      5-min Rain = 0
KDVS 131050Z 19007KT 23/14 A3004 RMK A01 T02340136  RH  056%=      5-min Rain = 0
KDVS 131055Z 20008KT 24/14 A3004 RMK A01 T02350136  RH  056%=      5-min Rain = 0
KDVS 131100Z 20008KT 24/14 A3004 RMK A01 T02350135  RH  056%=      5-min Rain = 0
KDVS 131105Z 20008KT 24/14 A3004 RMK A01 T02350135  RH  056%=      5-min Rain = 0
KDVS 131110Z 21007KT 24/14 A3004 RMK A01 T02350135  RH  055%=      5-min Rain = 0
KDVS 131115Z 21007KT 24/13 A3004 RMK A01 T02350134  RH  056%=      5-min Rain = 0
KDVS 131120Z 21007KT 23/14 A3004 RMK A01 T02340135  RH  056%=      5-min Rain = 0
KDVS 131125Z 21007KT 23/14 A3004 RMK A01 T02340136  RH  056%=      5-min Rain = 0
KDVS 131130Z 21007KT 23/14 A3004 RMK A01 T02330136  RH  057%=      5-min Rain = 0
KDVS 131135Z 21007KT 23/14 A3004 RMK A01 T02320137  RH  057%=      5-min Rain = 0
KDVS 131140Z 21007KT 23/14 A3004 RMK A01 T02310137  RH  058%=      5-min Rain = 0
KDVS 131145Z 21007KT 23/14 A3004 RMK A01 T02300137  RH  058%=      5-min Rain = 0
KDVS 131150Z 22007KT 23/14 A3004 RMK A01 T02290137  RH  059%=      5-min Rain = 0
KDVS 131155Z 22007KT 23/14 A3004 RMK A01 T02270138  RH  060%=      5-min Rain = 0
KDVS 131200Z 22008KT 23/14 A3004 RMK A01 T02270138  RH  059%=      5-min Rain = 0
KDVS 131205Z 22008KT 23/14 A3004 RMK A01 T02280137  RH  059%=      5-min Rain = 0
KDVS 131210Z 22007KT 23/14 A3005 RMK A01 T02280137  RH  059%=      5-min Rain = 0
KDVS 131215Z 22007KT 23/14 A3005 RMK A01 T02270137  RH  059%=      5-min Rain = 0
KDVS 131220Z 22007KT 23/14 A3005 RMK A01 T02260137  RH  060%=      5-min Rain = 0
KDVS 131225Z 22007KT 22/14 A3005 RMK A01 T02240138  RH  060%=      5-min Rain = 0
KDVS 131230Z 22007KT 22/14 A3005 RMK A01 T02230138  RH  061%=      5-min Rain = 0
KDVS 131235Z 22006KT 22/14 A3005 RMK A01 T02240138  RH  061%=      5-min Rain = 0
KDVS 131240Z 22006KT 23/14 A3005 RMK A01 T02250139  RH  061%=      5-min Rain = 0
KDVS 131245Z 22006KT 23/14 A3005 RMK A01 T02270139  RH  060%=      5-min Rain = 0
KDVS 131250Z 21006KT 23/14 A3005 RMK A01 T02280140  RH  060%=      5-min Rain = 0
KDVS 131255Z 22005KT 23/14 A3005 RMK A01 T02290140  RH  060%=      5-min Rain = 0
KDVS 131300Z 23005KT 23/14 A3005 RMK A01 T02300141  RH  059%=      5-min Rain = 0
KDVS 131305Z 23004KT 23/14 A3006 RMK A01 T02330141  RH  059%=      5-min Rain = 0
KDVS 131310Z 24005KT 24/14 A3006 RMK A01 T02370141  RH  057%=      5-min Rain = 0
KDVS 131315Z 22005KT 24/14 A3006 RMK A01 T02400140  RH  056%=      5-min Rain = 0
KDVS 131320Z 23006KT 24/14 A3006 RMK A01 T02430141  RH  055%=      5-min Rain = 0
KDVS 131325Z 23006KT 25/14 A3006 RMK A01 T02450141  RH  054%=      5-min Rain = 0
KDVS 131330Z 23007KT 25/14 A3006 RMK A01 T02470142  RH  054%=      5-min Rain = 0
KDVS 131335Z 23007KT 25/14 A3006 RMK A01 T02500143  RH  053%=      5-min Rain = 0
KDVS 131340Z 22007KT 25/14 A3006 RMK A01 T02530144  RH  053%=      5-min Rain = 0
KDVS 131345Z 22007KT 26/15 A3006 RMK A01 T02550145  RH  053%=      5-min Rain = 0
KDVS 131350Z 22008KT 26/15 A3006 RMK A01 T02580145  RH  052%=      5-min Rain = 0
KDVS 131355Z 23008KT 26/15 A3006 RMK A01 T02590145  RH  051%=      5-min Rain = 0
KDVS 131400Z 22007KT 26/15 A3006 RMK A01 T02620146  RH  051%=      5-min Rain = 0
KDVS 131405Z 24007KT 27/15 A3006 RMK A01 T02670145  RH  049%=      5-min Rain = 0
KDVS 131410Z 23009KT 27/14 A3007 RMK A01 T02660143  RH  049%=      5-min Rain = 0
KDVS 131415Z 23009KT 27/14 A3007 RMK A01 T02680144  RH  048%=      5-min Rain = 0
KDVS 131420Z 23010KT 27/15 A3007 RMK A01 T02680145  RH  049%=      5-min Rain = 0
KDVS 131425Z 23009KT 27/15 A3007 RMK A01 T02710145  RH  048%=      5-min Rain = 0
KDVS 131430Z 24009KT 27/15 A3007 RMK A01 T02730146  RH  048%=      5-min Rain = 0
KDVS 131435Z 24009KT 28/15 A3007 RMK A01 T02770147  RH  047%=      5-min Rain = 0
KDVS 131440Z 24009KT 28/15 A3007 RMK A01 T02800147  RH  046%=      5-min Rain = 0
KDVS 131445Z 23008KT 28/15 A3007 RMK A01 T02840147  RH  045%=      5-min Rain = 0
KDVS 131450Z 22008KT 29/15 A3007 RMK A01 T02850148  RH  045%=      5-min Rain = 0
KDVS 131455Z 23007KT 29/15 A3007 RMK A01 T02870149  RH  045%=      5-min Rain = 0
KDVS 131500Z 22007KT 29/15 A3007 RMK A01 T02930150  RH  044%=      5-min Rain = 0
KDVS 131505Z 22007KT 29/15 A3007 RMK A01 T02930148  RH  043%=      5-min Rain = 0
KDVS 131510Z 22009KT 30/15 A3007 RMK A01 T02970146  RH  041%=      5-min Rain = 0
KDVS 131515Z 22008KT 30/14 A3006 RMK A01 T03030141  RH  039%=      5-min Rain = 0
KDVS 131520Z 22009KT 31/14 A3007 RMK A01 T03060137  RH  037%=      5-min Rain = 0
KDVS 131525Z 22008KT 31/14 A3007 RMK A01 T03080136  RH  036%=      5-min Rain = 0
KDVS 131530Z 22008KT 31/14 A3007 RMK A01 T03110135  RH  036%=      5-min Rain = 0
KDVS 131535Z 22009KT 31/13 A3007 RMK A01 T03120134  RH  035%=      5-min Rain = 0
KDVS 131540Z 22009KT 32/13 A3007 RMK A01 T03180132  RH  034%=      5-min Rain = 0
KDVS 131545Z 22009KT 32/13 A3006 RMK A01 T03210128  RH  032%=      5-min Rain = 0
KDVS 131550Z 22009KT 33/13 A3006 RMK A01 T03260126  RH  031%=      5-min Rain = 0
KDVS 131555Z 22009KT 33/13 A3006 RMK A01 T03270125  RH  030%=      5-min Rain = 0
KDVS 131600Z 21010KT 33/13 A3006 RMK A01 T03290126  RH  030%=      5-min Rain = 0
KDVS 131605Z 22009KT 33/13 A3006 RMK A01 T03340125  RH  029%=      5-min Rain = 0
KDVS 131610Z 21009KT 34/13 A3006 RMK A01 T03360126  RH  029%=      5-min Rain = 0
KDVS 131615Z 22009KT 34/13 A3006 RMK A01 T03410126  RH  028%=      5-min Rain = 0
KDVS 131620Z 21009KT 34/12 A3006 RMK A01 T03430122  RH  027%=      5-min Rain = 0
KDVS 131625Z 22009KT 35/12 A3006 RMK A01 T03460119  RH  026%=      5-min Rain = 0
KDVS 131630Z 23008KT 35/12 A3006 RMK A01 T03450118  RH  026%=      5-min Rain = 0
KDVS 131635Z 22009KT 35/12 A3006 RMK A01 T03500115  RH  025%=      5-min Rain = 0
KDVS 131640Z 21009KT 35/11 A3006 RMK A01 T03510113  RH  025%=      5-min Rain = 0
KDVS 131645Z 22008KT 36/11 A3006 RMK A01 T03580113  RH  024%=      5-min Rain = 0
KDVS 131650Z 21009KT 36/11 A3006 RMK A01 T03590108  RH  023%=      5-min Rain = 0
KDVS 131655Z 21010KT 36/11 A3006 RMK A01 T03630108  RH  022%=      5-min Rain = 0
KDVS 131700Z 21010KT 37/10 A3006 RMK A01 T03650097  RH  020%=      5-min Rain = 0
KDVS 131705Z 21010KT 37/09 A3006 RMK A01 T03660094  RH  020%=      5-min Rain = 0
KDVS 131710Z 20010KT 37/09 A3006 RMK A01 T03690094  RH  019%=      5-min Rain = 0
KDVS 131715Z 20009KT 38/09 A3006 RMK A01 T03750086  RH  018%=      5-min Rain = 0
KDVS 131720Z 21010G15KT 37/09 A3005 RMK A01 T03730090  RH  019%=      5-min Rain = 0
KDVS 131725Z 21009G14KT 37/09 A3005 RMK A01 T03720087  RH  018%=      5-min Rain = 0
KDVS 131730Z 21010KT 37/09 A3005 RMK A01 T03730088  RH  018%=      5-min Rain = 0
KDVS 131735Z 21010KT 38/09 A3005 RMK A01 T03750094  RH  019%=      5-min Rain = 0
KDVS 131740Z 20011G16KT 38/09 A3005 RMK A01 T03750088  RH  018%=      5-min Rain = 0
KDVS 131745Z 21007KT 38/09 A3005 RMK A01 T03760086  RH  018%=      5-min Rain = 0
KDVS 131750Z 19010G15KT 38/09 A3004 RMK A01 T03790092  RH  018%=      5-min Rain = 0
KDVS 131755Z 19009G15KT 38/09 A3004 RMK A01 T03790092  RH  018%=      5-min Rain = 0
KDVS 131800Z 20012G17KT 38/09 A3004 RMK A01 T03840087  RH  017%=      5-min Rain = 0
KDVS 131805Z 22009G16KT 38/08 A3004 RMK A01 T03810079  RH  016%=      5-min Rain = 0
KDVS 131810Z 19009KT 38/09 A3004 RMK A01 T03830086  RH  017%=      5-min Rain = 0
KDVS 131815Z 20010G16KT 38/08 A3003 RMK A01 T03830084  RH  017%=      5-min Rain = 0
KDVS 131820Z 21009KT 39/09 A3003 RMK A01 T03870087  RH  017%=      5-min Rain = 0
KDVS 131825Z 21010G15KT 39/08 A3003 RMK A01 T03860083  RH  016%=      5-min Rain = 0
KDVS 131830Z 21009G15KT 39/08 A3003 RMK A01 T03860080  RH  016%=      5-min Rain = 0
KDVS 131835Z 21010KT 39/08 A3003 RMK A01 T03910078  RH  015%=      5-min Rain = 0
KDVS 131840Z 21010G17KT 39/08 A3002 RMK A01 T03900077  RH  015%=      5-min Rain = 0
KDVS 131845Z 22009G14KT 39/08 A3002 RMK A01 T03880076  RH  015%=      5-min Rain = 0
KDVS 131850Z 20013G19KT 39/07 A3002 RMK A01 T03930071  RH  015%=      5-min Rain = 0
KDVS 131855Z 21012G17KT 39/07 A3002 RMK A01 T03940071  RH  014%=      5-min Rain = 0
KDVS 131900Z 20009G16KT 39/07 A3002 RMK A01 T03920068  RH  014%=      5-min Rain = 0
KDVS 131905Z 19009G15KT 40/07 A3001 RMK A01 T03990071  RH  014%=      5-min Rain = 0
KDVS 131910Z 20009G14KT 40/07 A3001 RMK A01 T03950069  RH  014%=      5-min Rain = 0
KDVS 131915Z 18008G17KT 39/07 A3001 RMK A01 T03920069  RH  014%=      5-min Rain = 0
KDVS 131920Z 20011G16KT 39/07 A3001 RMK A01 T03930067  RH  014%=      5-min Rain = 0
KDVS 131925Z 19010KT 40/07 A30 RMK A01 T03950067  RH  014%=      5-min Rain = 0
KDVS 131930Z 18010G16KT 39/07 A30 RMK A01 T03940065  RH  014%=      5-min Rain = 0
KDVS 131935Z 18010G17KT 40/07 A30 RMK A01 T03950067  RH  014%=      5-min Rain = 0
KDVS 131940Z 19010G16KT 40/07 A30 RMK A01 T03980065  RH  014%=      5-min Rain = 0
KDVS 131945Z 21011G18KT 40/06 A2999 RMK A01 T04000063  RH  013%=      5-min Rain = 0
KDVS 131950Z 21014KT 41/06 A2999 RMK A01 T04050063  RH  013%=      5-min Rain = 0
KDVS 131955Z 22012G18KT 40/06 A2999 RMK A01 T04010060  RH  013%=      5-min Rain = 0
KDVS 132000Z 18013G18KT 40/06 A2999 RMK A01 T04040059  RH  013%=      5-min Rain = 0
KDVS 132005Z 20012G18KT 40/06 A2999 RMK A01 T03970058  RH  013%=      5-min Rain = 0
KDVS 132010Z 20008G15KT 39/06 A2998 RMK A01 T03940062  RH  014%=      5-min Rain = 0
KDVS 132015Z 18009KT 40/06 A2998 RMK A01 T03990064  RH  013%=      5-min Rain = 0
KDVS 132020Z 19011G19KT 40/06 A2998 RMK A01 T04040064  RH  013%=      5-min Rain = 0
KDVS 132025Z 18010KT 41/06 A2998 RMK A01 T04100061  RH  012%=      5-min Rain = 0
KDVS 132030Z 20007G12KT 40/06 A2998 RMK A01 T03990058  RH  013%=      5-min Rain = 0
KDVS 132035Z 26006G12KT 39/06 A2998 RMK A01 T03930058  RH  013%=      5-min Rain = 0
KDVS 132040Z 23007G12KT 39/06 A2998 RMK A01 T03920059  RH  014%=      5-min Rain = 0
KDVS 132045Z 31004KT 39/07 A2998 RMK A01 T03870065  RH  014%=      5-min Rain = 0
KDVS 132050Z 02002KT 38/07 A2998 RMK A01 T03840070  RH  015%=      5-min Rain = 0
KDVS 132055Z 06002KT 38/07 A2997 RMK A01 T03830069  RH  015%=      5-min Rain = 0
KDVS 132100Z 15002KT 38/07 A2997 RMK A01 T03840065  RH  015%=      5-min Rain = 0
KDVS 132105Z 18003KT 39/06 A2997 RMK A01 T03860057  RH  014%=      5-min Rain = 0
KDVS 132110Z 21006KT 39/06 A2997 RMK A01 T03870061  RH  014%=      5-min Rain = 0
KDVS 132115Z 21006KT 39/06 A2997 RMK A01 T03870059  RH  014%=      5-min Rain = 0
KDVS 132120Z 25003G8KT 39/06 A2997 RMK A01 T03860058  RH  014%=      5-min Rain = 0
KDVS 132125Z 33011G21KT 38/07 A2997 RMK A01 T03800072  RH  016%=      5-min Rain = 0
KDVS 132130Z 33025G41KT 35/09 A2997 RMK A01 T03510092  RH  021%=      5-min Rain = 0
KDVS 132135Z 35015G25KT 35/08 A2998 RMK A01 T03500077  RH  019%=      5-min Rain = 0
KDVS 132140Z 30015G24KT 36/09 A2999 RMK A01 T03560085  RH  020%=      5-min Rain = 0
KDVS 132145Z 28020G27KT 35/09 A2999 RMK A01 T03530086  RH  020%=      5-min Rain = 0
KDVS 132150Z 23022G34KT 34/11 A30 RMK A01 T03410108  RH  025%=      5-min Rain = 0
KDVS 132155Z 17013G29KT 32/13 A30 RMK A01 T03210128  RH  032%=      5-min Rain = 0.02
KDVS 132200Z 15015KT 32/15 A2999 RMK A01 T03170150  RH  038%=      5-min Rain = 0.01
KDVS 132205Z 16015G21KT 33/14 A2998 RMK A01 T03250144  RH  035%=      5-min Rain = 0
KDVS 132210Z 15013KT 35/13 A2998 RMK A01 T03460131  RH  029%=      5-min Rain = 0
KDVS 132215Z 14013KT 36/12 A2998 RMK A01 T03550122  RH  026%=      5-min Rain = 0
KDVS 132220Z 14012G23KT 35/12 A2998 RMK A01 T03530120  RH  025%=      5-min Rain = 0
KDVS 132225Z 11020G28KT 35/12 A2997 RMK A01 T03490119  RH  026%=      5-min Rain = 0
KDVS 132230Z 11020G30KT 35/11 A2997 RMK A01 T03520106  RH  023%=      5-min Rain = 0
KDVS 132235Z 12018G25KT 36/11 A2998 RMK A01 T03580107  RH  023%=      5-min Rain = 0
KDVS 132240Z 13013G22KT 36/11 A2998 RMK A01 T03600108  RH  023%=      5-min Rain = 0
KDVS 132245Z 13012KT 36/10 A2998 RMK A01 T03630103  RH  021%=      5-min Rain = 0
KDVS 132250Z 13013KT 36/10 A2997 RMK A01 T03610098  RH  021%=      5-min Rain = 0
KDVS 132255Z 14010G17KT 37/09 A2997 RMK A01 T03670089  RH  019%=      5-min Rain = 0
KDVS 132300Z 14013G18KT 36/09 A2997 RMK A01 T03620093  RH  020%=      5-min Rain = 0
KDVS 132305Z 16012KT 36/09 A2997 RMK A01 T03610090  RH  020%=      5-min Rain = 0
KDVS 132310Z 15010KT 36/08 A2997 RMK A01 T03620084  RH  019%=      5-min Rain = 0
KDVS 132315Z 15009KT 36/08 A2997 RMK A01 T03630083  RH  019%=      5-min Rain = 0
KDVS 132320Z 14009KT 36/09 A2997 RMK A01 T03630086  RH  019%=      5-min Rain = 0
KDVS 132325Z 14009KT 36/09 A2997 RMK A01 T03580088  RH  020%=      5-min Rain = 0
KDVS 132330Z 13007KT 36/09 A2997 RMK A01 T03580091  RH  020%=      5-min Rain = 0
KDVS 132335Z 13007KT 36/09 A2997 RMK A01 T03580091  RH  020%=      5-min Rain = 0
KDVS 132340Z 12008KT 36/09 A2997 RMK A01 T03570090  RH  020%=      5-min Rain = 0
KDVS 132345Z 12004KT 36/09 A2997 RMK A01 T03570091  RH  020%=      5-min Rain = 0
KDVS 132350Z 12002KT 36/09 A2997 RMK A01 T03580094  RH  021%=      5-min Rain = 0
KDVS 132355Z 11000KT 36/11 A2998 RMK A01 T03580106  RH  023%=      5-min Rain = 0
KDVS 140000Z 04002KT 36/10 A2998 RMK A01 T03580098  RH  021%=      5-min Rain = 0
KDVS 140005Z 08005KT 36/09 A2998 RMK A01 T03590086  RH  019%=      5-min Rain = 0
KDVS 140010Z 08006KT 36/08 A2998 RMK A01 T03600080  RH  019%=      5-min Rain = 0
KDVS 140015Z 09005KT 36/08 A2998 RMK A01 T03610078  RH  018%=      5-min Rain = 0
KDVS 140020Z 08007KT 36/08 A2998 RMK A01 T03610077  RH  018%=      5-min Rain = 0
KDVS 140025Z 06005KT 36/08 A2998 RMK A01 T03590079  RH  019%=      5-min Rain = 0
KDVS 140030Z 03004KT 36/08 A2998 RMK A01 T03570079  RH  019%=      5-min Rain = 0
KDVS 140035Z 04004KT 36/07 A2998 RMK A01 T03570074  RH  018%=      5-min Rain = 0
KDVS 140040Z 03003KT 36/08 A2998 RMK A01 T03550084  RH  020%=      5-min Rain = 0
KDVS 140045Z 03002KT 35/09 A2998 RMK A01 T03510085  RH  020%=      5-min Rain = 0
KDVS 140050Z 35003KT 35/09 A2998 RMK A01 T03490085  RH  020%=      5-min Rain = 0
KDVS 140055Z 33003KT 35/08 A2998 RMK A01 T03480082  RH  020%=      5-min Rain = 0
KDVS 140100Z 31003KT 34/11 A2998 RMK A01 T03420110  RH  025%=      5-min Rain = 0
KDVS 140105Z 29008KT 33/12 A2999 RMK A01 T03320124  RH  029%=      5-min Rain = 0
KDVS 140110Z 29011KT 33/10 A2999 RMK A01 T03340101  RH  025%=      5-min Rain = 0
KDVS 140115Z 29010KT 34/09 A2999 RMK A01 T03400092  RH  022%=      5-min Rain = 0
KDVS 140120Z 27009KT 34/09 A2999 RMK A01 T03400089  RH  022%=      5-min Rain = 0
KDVS 140125Z 28021G28KT 34/08 A2999 RMK A01 T03410081  RH  021%=      5-min Rain = 0
KDVS 140130Z 28023G34KT 34/08 A2999 RMK A01 T03430076  RH  020%=      5-min Rain = 0
KDVS 140135Z 26017G26KT 35/07 A2999 RMK A01 T03470070  RH  019%=      5-min Rain = 0
KDVS 140140Z 26022G30KT 34/07 A2999 RMK A01 T03440074  RH  019%=      5-min Rain = 0
KDVS 140145Z 23018G25KT 35/07 A2999 RMK A01 T03480069  RH  018%=      5-min Rain = 0
KDVS 140150Z 23012KT 35/07 A2999 RMK A01 T03540066  RH  017%=      5-min Rain = 0
KDVS 140155Z 21010KT 35/07 A2999 RMK A01 T03520068  RH  018%=      5-min Rain = 0
KDVS 140200Z 21010KT 35/07 A2999 RMK A01 T03540065  RH  017%=      5-min Rain = 0
KDVS 140205Z 23008KT 35/07 A2999 RMK A01 T03510069  RH  018%=      5-min Rain = 0
KDVS 140210Z 22007KT 35/07 A2999 RMK A01 T03470070  RH  019%=      5-min Rain = 0
KDVS 140215Z 23008KT 34/07 A2999 RMK A01 T03430074  RH  020%=      5-min Rain = 0
KDVS 140220Z 23008KT 34/08 A2999 RMK A01 T03410075  RH  020%=      5-min Rain = 0
KDVS 140225Z 23007KT 34/08 A30 RMK A01 T03400078  RH  020%=      5-min Rain = 0
KDVS 140230Z 22007KT 33/08 A30 RMK A01 T03340083  RH  022%=      5-min Rain = 0
KDVS 140235Z 25005KT 33/09 A30 RMK A01 T03290085  RH  023%=      5-min Rain = 0
KDVS 140240Z 27005KT 33/09 A30 RMK A01 T03260089  RH  024%=      5-min Rain = 0
KDVS 140245Z 27004KT 32/10 A30 RMK A01 T03210096  RH  026%=      5-min Rain = 0
KDVS 140250Z 28006KT 32/10 A30 RMK A01 T03190096  RH  026%=      5-min Rain = 0
KDVS 140255Z 28005KT 32/10 A3001 RMK A01 T03180098  RH  027%=      5-min Rain = 0
KDVS 140300Z 27005KT 32/10 A3001 RMK A01 T03150102  RH  028%=      5-min Rain = 0
KDVS 140305Z 26004KT 32/10 A3001 RMK A01 T03150102  RH  028%=      5-min Rain = 0
KDVS 140310Z 27005KT 32/10 A3001 RMK A01 T03150101  RH  028%=      5-min Rain = 0
KDVS 140315Z 27006KT 32/10 A3001 RMK A01 T03210097  RH  026%=      5-min Rain = 0
KDVS 140320Z 25005KT 32/10 A3001 RMK A01 T03190101  RH  027%=      5-min Rain = 0
KDVS 140325Z 24004KT 32/10 A3001 RMK A01 T03150101  RH  028%=      5-min Rain = 0
KDVS 140330Z 20003KT 31/10 A3001 RMK A01 T03120102  RH  028%=      5-min Rain = 0
KDVS 140335Z 06003KT 31/11 A3002 RMK A01 T03050107  RH  030%=      5-min Rain = 0
KDVS 140340Z 09005KT 30/10 A3002 RMK A01 T03010103  RH  030%=      5-min Rain = 0
KDVS 140345Z 10004KT 30/10 A3002 RMK A01 T03010099  RH  029%=      5-min Rain = 0
KDVS 140350Z 10004KT 31/10 A3001 RMK A01 T03050096  RH  028%=      5-min Rain = 0
KDVS 140355Z 11003KT 31/10 A3001 RMK A01 T03050095  RH  028%=      5-min Rain = 0
KDVS 140400Z 13003KT 30/10 A3001 RMK A01 T03020095  RH  029%=      5-min Rain = 0
KDVS 140405Z 15005KT 30/09 A3001 RMK A01 T03020094  RH  028%=      5-min Rain = 0
KDVS 140410Z 15007KT 30/10 A3001 RMK A01 T02950097  RH  030%=      5-min Rain = 0
KDVS 140415Z 16009KT 29/09 A3001 RMK A01 T02910094  RH  030%=      5-min Rain = 0
KDVS 140420Z 17010KT 30/09 A3001 RMK A01 T02980088  RH  028%=      5-min Rain = 0
KDVS 140425Z 18010KT 31/09 A3001 RMK A01 T03110085  RH  025%=      5-min Rain = 0
KDVS 140430Z 18012KT 32/09 A3002 RMK A01 T03170087  RH  025%=      5-min Rain = 0
KDVS 140435Z 18010KT 31/09 A3002 RMK A01 T03140089  RH  026%=      5-min Rain = 0
KDVS 140440Z 18011KT 31/09 A3002 RMK A01 T03100092  RH  027%=      5-min Rain = 0
KDVS 140445Z 18012KT 31/10 A3002 RMK A01 T03080095  RH  028%=      5-min Rain = 0
KDVS 140450Z 18013KT 31/10 A3002 RMK A01 T03080096  RH  028%=      5-min Rain = 0
KDVS 140455Z 18014KT 31/10 A3002 RMK A01 T03090096  RH  028%=      5-min Rain = 0

Page generated in 0.0098 seconds.